Time;durP1;ratioP1;P1;durP2;ratioP2;P2;SDS_P1;SDS_P2;PMS_P1;PMS_P2;Temp;Humidity;BMP_temperature;BMP_pressure;BME280_temperature;BME280_humidity;BME280_pressure;Samples;Min_cycle;Max_cycle;Signal;HPM_P1;HPM_P2
2021/04/21 00:01:57;;;;;;;20.33;15.90;;;7.80;99.90;;;;;;5023318;28;20279;-82
2021/04/21 00:04:26;;;;;;;20.97;15.40;;;7.80;99.90;;;;;;5025632;28;20197;-82
2021/04/21 00:06:55;;;;;;;20.23;15.13;;;7.80;99.90;;;;;;5014184;28;20296;-82
2021/04/21 00:09:23;;;;;;;21.23;15.37;;;7.70;99.90;;;;;;5020987;28;20354;-82
2021/04/21 00:11:51;;;;;;;20.23;15.97;;;7.70;99.90;;;;;;5018411;28;20244;-81
2021/04/21 00:14:22;;;;;;;20.07;15.00;;;7.70;99.90;;;;;;5022663;28;20308;-81
2021/04/21 00:16:55;;;;;;;16.87;14.93;;;7.80;99.90;;;;;;5014403;28;20225;-82
2021/04/21 00:19:25;;;;;;;18.50;14.57;;;7.80;99.90;;;;;;5014053;28;20234;-81
2021/04/21 00:21:52;;;;;;;17.47;13.73;;;7.80;99.90;;;;;;5014163;28;20216;-81
2021/04/21 00:24:19;;;;;;;20.93;15.03;;;7.80;99.90;;;;;;5013687;28;20289;-81
2021/04/21 00:26:48;;;;;;;21.20;15.40;;;7.70;99.90;;;;;;5014252;28;20299;-82
2021/04/21 00:29:17;;;;;;;17.20;14.30;;;7.70;99.90;;;;;;5013849;28;20292;-82
2021/04/21 00:31:45;;;;;;;20.20;15.20;;;7.70;99.90;;;;;;5013766;28;20226;-81
2021/04/21 00:34:13;;;;;;;20.87;15.40;;;7.70;99.90;;;;;;5014213;28;20212;-81
2021/04/21 00:36:42;;;;;;;19.03;15.17;;;7.70;99.90;;;;;;5024368;28;20314;-81
2021/04/21 00:39:10;;;;;;;19.00;14.90;;;7.70;99.90;;;;;;5020635;28;20239;-81
2021/04/21 00:41:45;;;;;;;18.53;14.07;;;7.70;99.90;;;;;;5013662;28;20233;-82
2021/04/21 00:44:22;;;;;;;20.33;14.57;;;7.60;99.90;;;;;;5022990;28;20656;-81
2021/04/21 00:46:52;;;;;;;18.30;13.90;;;7.60;99.90;;;;;;5032779;28;20299;-81
2021/04/21 00:49:26;;;;;;;17.43;14.10;;;7.60;99.90;;;;;;5014861;28;20282;-81
2021/04/21 00:51:56;;;;;;;20.77;14.13;;;7.60;99.90;;;;;;5033670;28;20615;-82
2021/04/21 00:54:32;;;;;;;20.07;14.90;;;7.60;99.90;;;;;;5033213;28;20236;-82
2021/04/21 00:57:07;;;;;;;18.13;14.73;;;7.60;99.90;;;;;;5033326;28;20262;-81
2021/04/21 00:59:43;;;;;;;23.40;14.70;;;7.60;99.90;;;;;;5032356;28;20310;-82
2021/04/21 01:02:12;;;;;;;20.17;14.80;;;7.60;99.90;;;;;;5032880;28;20200;-82
2021/04/21 01:04:41;;;;;;;18.97;13.83;;;7.50;99.90;;;;;;5033192;28;20644;-81
2021/04/21 01:07:10;;;;;;;19.63;14.97;;;7.50;99.90;;;;;;5032244;28;20716;-81
2021/04/21 01:09:39;;;;;;;19.10;14.80;;;7.40;99.90;;;;;;5026591;28;20200;-81
2021/04/21 01:12:12;;;;;;;20.63;14.77;;;7.30;99.90;;;;;;5016482;28;20228;-81
2021/04/21 01:14:43;;;;;;;18.67;14.87;;;7.20;99.90;;;;;;5028094;28;20623;-81
2021/04/21 01:17:14;;;;;;;20.53;14.97;;;7.10;99.90;;;;;;5013109;28;20318;-82
2021/04/21 01:20:03;;;;;;;19.10;14.87;;;7.10;99.90;;;;;;5015497;28;20785;-81
2021/04/21 01:22:43;;;;;;;21.30;14.87;;;7.10;99.90;;;;;;5013316;28;20232;-82
2021/04/21 01:25:15;;;;;;;21.13;14.77;;;7.10;99.90;;;;;;5033046;28;20286;-81
2021/04/21 01:27:57;;;;;;;21.47;14.77;;;7.00;99.90;;;;;;5032482;28;20207;-81
2021/04/21 01:30:26;;;;;;;21.40;15.37;;;7.00;99.90;;;;;;5013284;28;20201;-81
2021/04/21 01:32:55;;;;;;;20.50;14.47;;;6.90;99.90;;;;;;5012738;28;20363;-82
2021/04/21 01:35:23;;;;;;;20.40;15.37;;;6.90;99.90;;;;;;5012482;28;20266;-81
2021/04/21 01:37:52;;;;;;;19.67;15.20;;;6.90;99.90;;;;;;5015398;28;20237;-82
2021/04/21 01:40:25;;;;;;;20.20;14.87;;;7.00;99.90;;;;;;5012858;28;20656;-82
2021/04/21 01:42:55;;;;;;;20.83;15.13;;;7.00;99.90;;;;;;5019863;28;20280;-82
2021/04/21 01:45:26;;;;;;;20.70;15.07;;;6.90;99.90;;;;;;5032550;28;20238;-81
2021/04/21 01:47:56;;;;;;;21.13;15.43;;;6.90;99.90;;;;;;5027224;28;20280;-81
2021/04/21 01:50:23;;;;;;;18.03;14.50;;;6.90;99.90;;;;;;5012727;28;20228;-82
2021/04/21 01:53:06;;;;;;;21.27;15.23;;;6.90;99.90;;;;;;5012636;28;20295;-82
2021/04/21 01:55:55;;;;;;;23.57;15.50;;;6.80;99.90;;;;;;5013212;28;20255;-82
2021/04/21 01:58:49;;;;;;;22.07;15.33;;;6.70;99.90;;;;;;5032023;28;20207;-82
2021/04/21 02:01:28;;;;;;;20.80;15.03;;;6.80;99.90;;;;;;5032470;28;20196;-81
2021/04/21 02:04:01;;;;;;;22.37;16.00;;;6.70;99.90;;;;;;5014134;28;20725;-81
2021/04/21 02:06:51;;;;;;;25.93;16.43;;;6.60;99.90;;;;;;5012092;28;20200;-81
2021/04/21 02:10:02;;;;;;;23.03;15.90;;;6.60;99.90;;;;;;5029466;28;20228;-81
2021/04/21 02:12:53;;;;;;;20.30;15.90;;;6.60;99.90;;;;;;5017418;28;20327;-82
2021/04/21 02:15:29;;;;;;;19.40;14.80;;;6.60;99.90;;;;;;5012334;28;20315;-81
2021/04/21 02:18:04;;;;;;;22.77;15.37;;;6.60;99.90;;;;;;5003953;28;20238;-82
2021/04/21 02:20:35;;;;;;;22.80;15.53;;;6.60;99.90;;;;;;5012289;28;20211;-82
2021/04/21 02:23:07;;;;;;;19.80;15.77;;;6.60;99.90;;;;;;5011606;28;20295;-81
2021/04/21 02:25:51;;;;;;;22.13;15.83;;;6.60;99.90;;;;;;5012081;28;20342;-82
2021/04/21 02:28:24;;;;;;;21.43;15.50;;;6.60;99.90;;;;;;5024745;28;20215;-82
2021/04/21 02:30:58;;;;;;;21.87;16.33;;;6.50;99.90;;;;;;5011991;28;20210;-82
2021/04/21 02:33:31;;;;;;;21.90;15.63;;;6.50;99.90;;;;;;5012276;28;20231;-81
2021/04/21 02:36:03;;;;;;;24.83;16.90;;;6.40;99.90;;;;;;5011890;28;20263;-81
2021/04/21 02:38:36;;;;;;;23.87;15.73;;;6.40;99.90;;;;;;5018862;28;20290;-81
2021/04/21 02:41:08;;;;;;;25.07;16.83;;;6.40;99.90;;;;;;5031652;28;20240;-82
2021/04/21 02:43:54;;;;;;;21.97;16.07;;;6.40;99.90;;;;;;5024699;28;20232;-81
2021/04/21 02:46:28;;;;;;;24.77;16.33;;;6.40;99.90;;;;;;5032153;28;20284;-81
2021/04/21 02:49:08;;;;;;;22.57;16.40;;;6.50;99.90;;;;;;5018321;28;20702;-81
2021/04/21 02:51:44;;;;;;;23.90;15.90;;;6.50;99.90;;;;;;5035009;28;20208;-81
2021/04/21 02:54:15;;;;;;;23.83;16.83;;;6.40;99.90;;;;;;5034257;28;20244;-81
2021/04/21 02:56:50;;;;;;;24.40;17.33;;;6.40;99.90;;;;;;5027810;28;20235;-81
2021/04/21 02:59:26;;;;;;;24.70;17.53;;;6.30;99.90;;;;;;5035484;28;20202;-82
2021/04/21 03:01:58;;;;;;;27.77;16.67;;;6.30;99.90;;;;;;5035731;28;20306;-82
2021/04/21 03:04:32;;;;;;;24.47;17.13;;;6.30;99.90;;;;;;5035630;28;20199;-82
2021/04/21 03:07:03;;;;;;;22.50;16.30;;;6.20;99.90;;;;;;5035806;28;20231;-82
2021/04/21 03:09:39;;;;;;;24.40;16.83;;;6.20;99.90;;;;;;5034526;28;20670;-82
2021/04/21 03:12:08;;;;;;;22.33;16.27;;;6.10;99.90;;;;;;5033163;28;20377;-81
2021/04/21 03:14:35;;;;;;;23.13;16.90;;;6.10;99.90;;;;;;5024867;28;20291;-81
2021/04/21 03:17:08;;;;;;;21.13;16.37;;;6.00;99.90;;;;;;5033240;28;20258;-82
2021/04/21 03:19:40;;;;;;;24.17;17.20;;;6.10;99.90;;;;;;5026447;28;20200;-81
2021/04/21 03:22:14;;;;;;;27.07;17.50;;;6.10;99.90;;;;;;5017701;28;20296;-82
2021/04/21 03:24:44;;;;;;;21.53;16.03;;;6.00;99.90;;;;;;5034562;28;20199;-81
2021/04/21 03:27:12;;;;;;;22.97;17.10;;;6.00;99.90;;;;;;5024656;28;20208;-82
2021/04/21 03:29:41;;;;;;;23.67;16.90;;;5.90;99.90;;;;;;5020677;28;20673;-81
2021/04/21 03:32:12;;;;;;;24.43;17.03;;;5.90;99.90;;;;;;5032411;28;20719;-81
2021/04/21 03:34:41;;;;;;;23.07;16.83;;;5.90;99.90;;;;;;5014756;28;20735;-82
2021/04/21 03:37:20;;;;;;;23.33;16.90;;;5.90;99.90;;;;;;5015105;28;20318;-81
2021/04/21 03:39:48;;;;;;;24.10;17.63;;;5.80;99.90;;;;;;5014819;28;20290;-82
2021/04/21 03:42:14;;;;;;;21.07;15.77;;;5.80;99.90;;;;;;5015278;28;20205;-81
2021/04/21 03:44:41;;;;;;;22.93;16.87;;;5.70;99.90;;;;;;5015026;28;20234;-81
2021/04/21 03:47:10;;;;;;;25.20;17.33;;;5.70;99.90;;;;;;5027349;28;20286;-81
2021/04/21 03:49:38;;;;;;;25.37;18.00;;;5.60;99.90;;;;;;5033909;28;20236;-81
2021/04/21 03:52:07;;;;;;;26.53;18.40;;;5.70;99.90;;;;;;5034511;28;20288;-82
2021/04/21 03:54:34;;;;;;;26.03;18.67;;;5.70;99.90;;;;;;5019168;28;20644;-82
2021/04/21 03:57:03;;;;;;;25.90;18.37;;;5.60;99.90;;;;;;5027364;28;20321;-81
2021/04/21 03:59:31;;;;;;;25.20;18.43;;;5.60;99.90;;;;;;5016545;28;20259;-82
2021/04/21 04:02:01;;;;;;;23.83;17.77;;;5.60;99.90;;;;;;5020218;28;20273;-82
2021/04/21 04:04:31;;;;;;;23.30;18.10;;;5.60;99.90;;;;;;5014764;28;20250;-81
2021/04/21 04:07:05;;;;;;;25.07;17.80;;;5.50;99.90;;;;;;5016809;28;20231;-81
2021/04/21 04:09:34;;;;;;;27.03;18.07;;;5.40;99.90;;;;;;5025994;28;20239;-81
2021/04/21 04:12:04;;;;;;;22.47;16.33;;;5.30;99.90;;;;;;5016556;28;20277;-81
2021/04/21 04:14:33;;;;;;;22.80;17.50;;;5.30;99.90;;;;;;5029551;28;20202;-82
2021/04/21 04:17:03;;;;;;;22.63;17.00;;;5.10;99.90;;;;;;5015394;28;20310;-82
2021/04/21 04:19:32;;;;;;;22.93;16.37;;;5.00;99.90;;;;;;5012704;28;20209;-81
2021/04/21 04:22:06;;;;;;;22.47;16.67;;;4.80;99.90;;;;;;5013672;28;20292;-80
2021/04/21 04:24:40;;;;;;;22.57;16.60;;;4.70;99.90;;;;;;5014468;28;20228;-82
2021/04/21 04:27:13;;;;;;;27.47;17.17;;;4.70;99.90;;;;;;4997569;28;20335;-80
2021/04/21 04:29:41;;;;;;;23.30;16.77;;;4.70;99.90;;;;;;5014686;28;20230;-81
2021/04/21 04:32:12;;;;;;;23.30;16.73;;;4.60;99.90;;;;;;5013925;28;20744;-81
2021/04/21 04:34:42;;;;;;;24.40;17.63;;;4.50;99.90;;;;;;5021394;28;20200;-82
2021/04/21 04:37:10;;;;;;;22.57;17.07;;;4.40;99.90;;;;;;5030072;28;20225;-82
2021/04/21 04:39:38;;;;;;;24.03;17.50;;;4.40;99.90;;;;;;5013716;28;20263;-82
2021/04/21 04:42:06;;;;;;;25.47;18.47;;;4.40;99.90;;;;;;5015120;28;20293;-82
2021/04/21 04:44:35;;;;;;;24.40;18.50;;;4.40;99.90;;;;;;5028403;28;20289;-82
2021/04/21 04:47:05;;;;;;;25.53;19.13;;;4.50;99.90;;;;;;5013024;28;20287;-82
2021/04/21 04:49:38;;;;;;;26.10;19.07;;;4.50;99.90;;;;;;5013788;28;20287;-82
2021/04/21 04:52:07;;;;;;;26.40;19.00;;;4.40;99.90;;;;;;5013851;28;20205;-82
2021/04/21 04:54:35;;;;;;;25.77;19.60;;;4.40;99.90;;;;;;5013544;28;20197;-82
2021/04/21 04:57:04;;;;;;;25.73;19.13;;;4.40;99.90;;;;;;5013827;28;20240;-82
2021/04/21 04:59:32;;;;;;;31.60;19.83;;;4.40;99.90;;;;;;5013810;28;20252;-82
2021/04/21 05:02:01;;;;;;;26.03;19.10;;;4.40;99.90;;;;;;5013229;28;20208;-81
2021/04/21 05:04:33;;;;;;;28.77;19.70;;;4.50;99.90;;;;;;5023597;28;20271;-82
2021/04/21 05:07:05;;;;;;;27.57;18.80;;;4.50;99.90;;;;;;4994024;28;20205;-82
2021/04/21 05:09:38;;;;;;;27.30;19.47;;;4.60;99.90;;;;;;4993100;28;20214;-82
2021/04/21 05:12:10;;;;;;;28.80;19.80;;;4.60;99.90;;;;;;4997084;28;20727;-82
2021/04/21 05:14:38;;;;;;;31.47;20.73;;;4.70;99.90;;;;;;4994033;28;20285;-82
2021/04/21 05:17:47;;;;;;;27.80;19.87;;;4.80;99.90;;;;;;4993823;28;20622;-80
2021/04/21 05:20:41;;;;;;;28.50;20.77;;;4.80;99.90;;;;;;5029474;28;20324;-81
2021/04/21 05:23:41;;;;;;;29.70;20.33;;;4.90;99.90;;;;;;5032551;28;20296;-80
2021/04/21 05:26:58;;;;;;;28.53;19.83;;;4.90;99.90;;;;;;4914548;29;20648;-82
2021/04/21 05:30:15;;;;;;;30.70;20.30;;;4.90;99.90;;;;;;4892580;29;20776;-82
2021/04/21 05:33:37;;;;;;;27.33;19.67;;;5.00;99.90;;;;;;4927238;29;20288;-82
2021/04/21 05:36:43;;;;;;;31.03;20.93;;;5.00;99.90;;;;;;4918676;29;20260;-82
2021/04/21 05:39:52;;;;;;;29.70;20.33;;;5.00;99.90;;;;;;4932214;29;20208;-82
2021/04/21 05:43:03;;;;;;;29.40;20.30;;;5.10;99.90;;;;;;4933474;29;20241;-82
2021/04/21 05:46:20;;;;;;;29.10;19.70;;;5.30;99.90;;;;;;4932947;29;20743;-82
2021/04/21 05:49:10;;;;;;;27.73;19.83;;;5.40;99.90;;;;;;4929439;29;20231;-82
2021/04/21 05:51:53;;;;;;;29.40;20.20;;;5.50;99.90;;;;;;4933358;29;20206;-82
2021/04/21 05:55:02;;;;;;;28.63;19.80;;;5.70;99.90;;;;;;4932204;29;20275;-83
2021/04/21 05:58:07;;;;;;;28.53;19.03;;;6.10;99.90;;;;;;4932904;29;20251;-83
2021/04/21 06:01:08;;;;;;;26.37;19.27;;;6.10;99.90;;;;;;4932631;29;20206;-82
2021/04/21 06:03:38;;;;;;;28.17;19.83;;;6.10;99.90;;;;;;4986331;28;20266;-81
2021/04/21 06:06:05;;;;;;;26.17;19.70;;;6.10;99.90;;;;;;5012085;28;20236;-82
2021/04/21 06:08:33;;;;;;;26.50;19.80;;;6.20;99.90;;;;;;5012473;28;20399;-82
2021/04/21 06:11:00;;;;;;;24.70;18.77;;;6.40;99.90;;;;;;5012541;28;20232;-82
2021/04/21 06:13:28;;;;;;;23.60;18.23;;;6.60;99.90;;;;;;5012276;28;20783;-83
2021/04/21 06:15:54;;;;;;;28.23;20.00;;;6.60;99.90;;;;;;5021163;28;20222;-82
2021/04/21 06:18:22;;;;;;;25.30;19.03;;;6.60;99.90;;;;;;5011523;28;20298;-83
2021/04/21 06:20:49;;;;;;;27.83;19.97;;;6.70;99.90;;;;;;5020556;28;20200;-82
2021/04/21 06:23:18;;;;;;;27.93;19.40;;;7.40;99.90;;;;;;5026313;28;20225;-81
2021/04/21 06:25:47;;;;;;;27.90;18.77;;;8.10;99.90;;;;;;5024698;28;20207;-82
2021/04/21 06:28:19;;;;;;;25.47;17.57;;;9.10;99.90;;;;;;5012469;28;20239;-81
2021/04/21 06:30:47;;;;;;;29.27;17.47;;;9.80;99.90;;;;;;5011602;28;20740;-82
2021/04/21 06:33:15;;;;;;;29.10;17.93;;;10.40;99.90;;;;;;5019870;28;20294;-81
2021/04/21 06:35:43;;;;;;;22.30;17.03;;;10.90;99.90;;;;;;5030834;28;20219;-82
2021/04/21 06:38:10;;;;;;;22.30;16.70;;;11.20;99.90;;;;;;5012636;28;20623;-81
2021/04/21 06:40:41;;;;;;;24.30;17.23;;;10.50;99.90;;;;;;5019428;28;20725;-81
2021/04/21 06:43:08;;;;;;;22.50;17.47;;;9.80;99.90;;;;;;5012213;28;20201;-83
2021/04/21 06:45:36;;;;;;;26.67;16.87;;;9.10;99.90;;;;;;5026829;28;20238;-82
2021/04/21 06:48:04;;;;;;;25.60;17.60;;;8.80;99.90;;;;;;5014183;28;20735;-83
2021/04/21 06:50:32;;;;;;;24.13;16.93;;;8.70;99.90;;;;;;5011908;28;20288;-83
2021/04/21 06:53:01;;;;;;;25.57;17.23;;;8.80;99.90;;;;;;5015088;28;20285;-84
2021/04/21 06:55:28;;;;;;;25.13;17.10;;;9.30;99.90;;;;;;5013781;28;20652;-84
2021/04/21 06:57:55;;;;;;;34.63;17.90;;;9.70;99.90;;;;;;5021595;28;20221;-83
2021/04/21 07:00:23;;;;;;;33.23;18.03;;;10.20;99.90;;;;;;5011866;28;20298;-85
2021/04/21 07:02:52;;;;;;;33.37;17.40;;;11.40;99.90;;;;;;5021760;28;20215;-83
2021/04/21 07:05:34;;;;;;;23.50;17.20;;;11.40;99.90;;;;;;5031413;28;20261;-84
2021/04/21 07:08:07;;;;;;;22.83;16.53;;;12.10;99.90;;;;;;5031579;28;20254;-84
2021/04/21 07:10:35;;;;;;;18.70;16.00;;;13.00;99.90;;;;;;5031808;28;20200;-80
2021/04/21 07:13:03;;;;;;;18.83;15.97;;;13.10;99.90;;;;;;5021640;28;20268;-79
2021/04/21 07:15:30;;;;;;;22.03;16.77;;;13.50;99.90;;;;;;5019932;28;20280;-80
2021/04/21 07:17:57;;;;;;;18.33;16.10;;;14.00;99.90;;;;;;5024372;28;20240;-80
2021/04/21 07:20:25;;;;;;;21.40;15.90;;;14.20;99.90;;;;;;5018613;28;20200;-80
2021/04/21 07:22:51;;;;;;;19.30;15.43;;;14.80;99.90;;;;;;5015401;28;20258;-81
2021/04/21 07:25:19;;;;;;;21.47;16.50;;;15.40;99.90;;;;;;5008397;28;20285;-80
2021/04/21 07:32:16;;;;;;;;;;;;;;;;;;;;;
2021/04/21 07:39:44;;;;;;;18.00;15.38;;;17.30;99.90;;;;;;4845454;29;20302;-85
2021/04/21 08:08:10;;;;;;;15.40;13.60;;;18.60;99.90;;;;;;4743424;29;20610;-86
2021/04/21 08:14:47;;;;;;;20.58;14.68;;;19.50;99.90;;;;;;4749207;30;20238;-88
2021/04/21 08:17:19;;;;;;;16.98;14.07;;;19.60;99.90;;;;;;4799268;29;20232;-85
2021/04/21 08:50:42;;;;;;;17.08;12.05;;;23.00;99.90;;;;;;4736927;29;20279;-90
2021/04/21 08:53:11;;;;;;;13.98;11.73;;;22.90;99.90;;;;;;4820355;29;20218;-89
2021/04/21 08:55:39;;;;;;;16.90;12.10;;;22.60;99.90;;;;;;4826652;29;20207;-89
2021/04/21 08:58:11;;;;;;;14.10;12.07;;;22.50;99.80;;;;;;4858282;29;20218;-89
2021/04/21 09:00:39;;;;;;;16.58;12.35;;;22.10;99.90;;;;;;4959562;28;20581;-89
2021/04/21 09:03:05;;;;;;;16.98;12.15;;;22.30;99.70;;;;;;5011692;28;20612;-85
2021/04/21 09:05:33;;;;;;;15.45;11.57;;;22.40;98.50;;;;;;5029968;28;20258;-89
2021/04/21 09:08:01;;;;;;;15.90;12.52;;;22.00;99.00;;;;;;5022329;28;20209;-88
2021/04/21 09:10:27;;;;;;;17.25;12.75;;;21.90;98.60;;;;;;5012319;28;20330;-85
2021/04/21 09:12:56;;;;;;;16.23;12.82;;;22.90;99.30;;;;;;5014128;28;20290;-85
2021/04/21 09:15:24;;;;;;;17.30;12.82;;;23.20;97.70;;;;;;5025022;28;20211;-85
2021/04/21 09:17:55;;;;;;;14.32;12.23;;;24.20;98.60;;;;;;5002923;28;20225;-83
2021/04/21 09:20:43;;;;;;;15.20;12.70;;;24.60;93.40;;;;;;5016143;28;20209;-85
2021/04/21 09:23:12;;;;;;;14.23;12.60;;;23.90;94.70;;;;;;5011874;28;20248;-85
2021/04/21 09:25:40;;;;;;;16.73;12.90;;;23.60;95.50;;;;;;5011991;28;20209;-85
2021/04/21 09:28:08;;;;;;;17.55;13.30;;;24.40;94.10;;;;;;5016386;28;20235;-85
2021/04/21 09:30:36;;;;;;;14.93;12.50;;;23.50;93.30;;;;;;5022488;28;20292;-91
2021/04/21 09:33:04;;;;;;;15.90;11.82;;;23.60;94.00;;;;;;5016521;28;20284;-89
2021/04/21 09:35:33;;;;;;;14.02;11.32;;;23.50;90.70;;;;;;5025787;28;20204;-89
2021/04/21 09:38:06;;;;;;;14.25;10.80;;;22.60;91.80;;;;;;5021428;28;20649;-88
2021/04/21 09:40:33;;;;;;;14.88;10.93;;;23.30;91.00;;;;;;5014039;28;20760;-89
2021/04/21 09:43:00;;;;;;;14.95;11.82;;;23.80;90.30;;;;;;4997295;28;20287;-87
2021/04/21 09:45:34;;;;;;;15.77;11.00;;;23.60;91.20;;;;;;5021063;28;20200;-87
2021/04/21 09:48:14;;;;;;;14.20;10.60;;;24.40;88.30;;;;;;5012661;28;20231;-86
2021/04/21 09:50:43;;;;;;;14.18;9.63;;;24.10;86.40;;;;;;5032157;28;20664;-86
2021/04/21 09:53:21;;;;;;;13.85;10.85;;;23.80;87.20;;;;;;5027748;28;20208;-87
2021/04/21 09:55:58;;;;;;;14.93;10.75;;;23.10;89.50;;;;;;5030930;28;20246;-86
2021/04/21 09:58:31;;;;;;;15.77;10.82;;;23.80;91.90;;;;;;5017370;28;20212;-86
2021/04/21 10:00:57;;;;;;;15.70;10.82;;;24.60;88.90;;;;;;5021323;28;20231;-86
2021/04/21 10:03:24;;;;;;;13.02;10.77;;;23.90;87.20;;;;;;5023300;28;20738;-86
2021/04/21 10:05:52;;;;;;;13.48;9.93;;;25.30;86.20;;;;;;5020702;28;20224;-88
2021/04/21 10:08:23;;;;;;;15.27;9.90;;;24.80;85.70;;;;;;5013214;28;20276;-87
2021/04/21 10:11:00;;;;;;;16.02;9.93;;;23.20;85.60;;;;;;5012395;28;20660;-84
2021/04/21 10:13:27;;;;;;;13.68;10.18;;;22.80;84.80;;;;;;5014496;28;20237;-84
2021/04/21 10:15:54;;;;;;;15.80;9.52;;;24.40;84.70;;;;;;5021666;28;20290;-84
2021/04/21 10:18:20;;;;;;;14.35;9.00;;;24.20;82.60;;;;;;5019469;28;20205;-83
2021/04/21 10:20:47;;;;;;;15.38;10.38;;;23.40;82.10;;;;;;5016094;28;20236;-84
2021/04/21 10:23:14;;;;;;;14.90;8.90;;;22.60;85.90;;;;;;5015643;28;20283;-79
2021/04/21 10:25:41;;;;;;;10.98;9.15;;;22.90;84.30;;;;;;5020076;28;20304;-86
2021/04/21 10:28:08;;;;;;;14.25;9.25;;;23.40;84.40;;;;;;5015762;28;20231;-83
2021/04/21 10:30:36;;;;;;;12.73;8.15;;;23.70;81.70;;;;;;5018672;28;20229;-84
2021/04/21 10:33:03;;;;;;;13.55;9.43;;;24.40;81.00;;;;;;5022684;28;20204;-85
2021/04/21 10:35:30;;;;;;;12.60;7.88;;;24.20;79.90;;;;;;4998106;28;20205;-84
2021/04/21 10:37:58;;;;;;;12.32;7.80;;;24.70;75.10;;;;;;5011421;28;20304;-82
2021/04/21 10:40:26;;;;;;;11.18;7.03;;;25.30;74.50;;;;;;5012178;28;20212;-81
2021/04/21 10:42:58;;;;;;;11.18;8.10;;;24.90;71.10;;;;;;5028800;28;20735;-82
2021/04/21 10:45:25;;;;;;;10.65;8.35;;;23.70;75.40;;;;;;5025345;28;20193;-87
2021/04/21 10:47:53;;;;;;;13.75;9.00;;;22.70;75.40;;;;;;5020027;28;20722;-84
2021/04/21 10:50:39;;;;;;;15.18;8.50;;;22.90;77.10;;;;;;5020277;28;20207;-81
2021/04/21 10:53:06;;;;;;;11.23;7.78;;;23.70;86.90;;;;;;5023312;28;20217;-81
2021/04/21 10:55:44;;;;;;;10.82;8.38;;;24.90;77.10;;;;;;5022758;28;20212;-80
2021/04/21 10:58:13;;;;;;;9.60;8.52;;;24.40;76.20;;;;;;5024557;28;20309;-81
2021/04/21 11:00:41;;;;;;;11.98;9.52;;;25.10;74.40;;;;;;5018216;28;20679;-81
2021/04/21 11:03:09;;;;;;;12.10;9.30;;;24.00;76.40;;;;;;5019359;28;20205;-82
2021/04/21 11:05:42;;;;;;;14.85;10.15;;;22.60;79.60;;;;;;5015365;28;20220;-80
2021/04/21 11:08:10;;;;;;;12.52;9.00;;;22.80;79.80;;;;;;5022600;28;20312;-81
2021/04/21 11:10:55;;;;;;;11.10;9.45;;;24.10;78.70;;;;;;5030798;28;20216;-81
2021/04/21 11:13:40;;;;;;;9.13;7.03;;;23.00;80.30;;;;;;5026201;28;20236;-80
2021/04/21 11:16:34;;;;;;;9.70;7.03;;;22.70;78.80;;;;;;5015573;28;20235;-81
2021/04/21 11:19:29;;;;;;;8.82;6.90;;;23.40;78.50;;;;;;5015004;28;21793;-86
2021/04/21 11:22:15;;;;;;;8.85;7.78;;;25.50;73.50;;;;;;5014371;28;20224;-84
2021/04/21 11:24:41;;;;;;;11.73;8.75;;;25.10;75.70;;;;;;5019440;28;20225;-82
2021/04/21 11:27:43;;;;;;;13.40;8.18;;;23.60;75.60;;;;;;5016246;28;20229;-82
2021/04/21 11:30:55;;;;;;;8.50;7.53;;;23.00;76.50;;;;;;5010554;28;20209;-81
2021/04/21 11:33:55;;;;;;;9.77;7.07;;;24.00;80.90;;;;;;5010605;28;20219;-81
2021/04/21 11:36:46;;;;;;;8.80;6.35;;;23.00;77.80;;;;;;5006705;28;20304;-81
2021/04/21 11:39:13;;;;;;;9.90;6.75;;;22.10;79.80;;;;;;5010916;28;20299;-81
2021/04/21 11:41:41;;;;;;;10.75;8.32;;;23.70;75.70;;;;;;5011135;28;20221;-81
2021/04/21 11:44:09;;;;;;;10.07;8.00;;;23.40;74.50;;;;;;5012265;28;20288;-83
2021/04/21 11:46:57;;;;;;;9.38;7.65;;;24.30;72.40;;;;;;5017900;28;20204;-82
2021/04/21 11:50:03;;;;;;;10.50;8.27;;;24.50;70.40;;;;;;5011391;28;20205;-86
2021/04/21 11:52:44;;;;;;;12.52;9.77;;;25.00;71.10;;;;;;5014250;28;20661;-87
2021/04/21 11:55:18;;;;;;;12.57;9.23;;;22.60;72.80;;;;;;5019331;28;20264;-87
2021/04/21 11:57:51;;;;;;;13.57;9.82;;;21.80;78.80;;;;;;5015868;28;20224;-86
2021/04/21 12:00:20;;;;;;;12.10;9.77;;;21.30;81.70;;;;;;5000286;28;20209;-87
2021/04/21 12:02:47;;;;;;;9.48;8.10;;;20.60;83.90;;;;;;5019688;28;20216;-87
2021/04/21 12:05:29;;;;;;;11.43;8.07;;;20.30;85.00;;;;;;5024630;28;20608;-82
2021/04/21 12:07:57;;;;;;;10.98;7.72;;;20.30;84.60;;;;;;5019475;28;20232;-88
2021/04/21 12:10:26;;;;;;;9.65;7.30;;;20.50;84.70;;;;;;5018230;28;20197;-79
2021/04/21 12:12:52;;;;;;;9.95;7.10;;;21.50;80.20;;;;;;5007029;28;20236;-80
2021/04/21 12:15:33;;;;;;;10.55;8.35;;;23.60;76.80;;;;;;5011455;28;20318;-80
2021/04/21 12:18:01;;;;;;;9.15;7.57;;;22.50;75.40;;;;;;5010895;28;20231;-78
2021/04/21 12:20:30;;;;;;;11.50;7.50;;;22.20;76.80;;;;;;5021620;28;20231;-78
2021/04/21 12:22:57;;;;;;;8.70;7.07;;;21.60;78.60;;;;;;5028782;28;20604;-79
2021/04/21 12:25:26;;;;;;;23.80;8.30;;;21.40;76.50;;;;;;5014913;28;20212;-80
2021/04/21 12:27:54;;;;;;;7.32;6.25;;;21.50;77.80;;;;;;5022877;28;20193;-78
2021/04/21 12:30:25;;;;;;;8.80;7.85;;;22.70;78.50;;;;;;5025616;28;20251;-79
2021/04/21 12:32:52;;;;;;;11.40;7.75;;;22.90;74.00;;;;;;5030881;28;20201;-78
2021/04/21 12:35:21;;;;;;;14.30;9.10;;;23.10;77.70;;;;;;4999815;28;20201;-78
2021/04/21 12:38:02;;;;;;;11.07;8.15;;;23.60;73.20;;;;;;5018975;28;20216;-81
2021/04/21 12:40:31;;;;;;;11.98;9.13;;;23.10;75.60;;;;;;5023289;28;20259;-78
2021/04/21 12:43:09;;;;;;;12.40;9.05;;;22.90;76.40;;;;;;5030438;28;20744;-79
2021/04/21 12:45:36;;;;;;;9.30;8.35;;;23.50;76.90;;;;;;5017811;28;20619;-78
2021/04/21 12:48:18;;;;;;;11.63;8.52;;;24.40;75.60;;;;;;5021355;28;20212;-77
2021/04/21 12:50:48;;;;;;;8.60;7.47;;;23.80;75.50;;;;;;5030157;28;20197;-77
2021/04/21 12:53:18;;;;;;;12.25;8.90;;;24.00;73.40;;;;;;5027069;28;20283;-79
2021/04/21 12:55:45;;;;;;;10.15;8.23;;;22.00;79.50;;;;;;5018726;28;20228;-76
2021/04/21 12:58:12;;;;;;;10.10;8.60;;;21.50;81.00;;;;;;5025611;28;20312;-76
2021/04/21 13:00:40;;;;;;;9.30;7.75;;;21.60;82.00;;;;;;5018400;28;20208;-78
2021/04/21 13:03:18;;;;;;;12.70;8.77;;;21.50;82.80;;;;;;5011632;28;20251;-77
2021/04/21 13:05:49;;;;;;;12.85;9.20;;;21.30;81.00;;;;;;5024115;28;20734;-77
2021/04/21 13:08:22;;;;;;;11.38;8.68;;;21.10;84.00;;;;;;5002398;28;20235;-77
2021/04/21 13:10:49;;;;;;;12.57;9.38;;;22.50;82.10;;;;;;5016456;28;20193;-78
2021/04/21 13:13:27;;;;;;;11.82;9.82;;;23.40;80.10;;;;;;5021949;28;20240;-76
2021/04/21 13:15:55;;;;;;;9.90;8.45;;;23.40;81.20;;;;;;5020914;28;20238;-77
2021/04/21 13:18:22;;;;;;;9.90;8.75;;;23.70;83.30;;;;;;5027340;28;20267;-77
2021/04/21 13:20:51;;;;;;;12.80;9.23;;;23.90;81.40;;;;;;5017076;28;20200;-78
2021/04/21 13:23:21;;;;;;;11.85;8.38;;;23.50;75.80;;;;;;5028109;28;20619;-80
2021/04/21 13:25:59;;;;;;;9.98;8.63;;;23.10;78.70;;;;;;5029992;28;20211;-78
2021/04/21 13:28:34;;;;;;;9.52;8.40;;;23.80;74.30;;;;;;5033255;28;20196;-78
2021/04/21 13:31:06;;;;;;;9.68;7.93;;;24.00;73.10;;;;;;5024938;28;20642;-78
2021/04/21 13:33:33;;;;;;;9.77;8.43;;;23.50;75.20;;;;;;5027884;28;20224;-78
2021/04/21 13:36:02;;;;;;;13.23;8.05;;;24.10;71.90;;;;;;5021589;28;20284;-77
2021/04/21 13:38:30;;;;;;;12.07;7.68;;;24.60;74.10;;;;;;5025479;28;20209;-79
2021/04/21 13:40:56;;;;;;;12.98;7.20;;;25.20;73.00;;;;;;5018808;28;20201;-78
2021/04/21 13:43:24;;;;;;;10.20;6.88;;;24.60;71.40;;;;;;5024729;28;20200;-86
2021/04/21 13:45:51;;;;;;;9.05;8.07;;;25.00;68.70;;;;;;5023266;28;20221;-80
2021/04/21 13:48:18;;;;;;;8.48;7.13;;;22.70;72.60;;;;;;5015462;28;20196;-79
2021/04/21 13:50:45;;;;;;;6.95;5.40;;;22.70;70.80;;;;;;5018797;28;20614;-79
2021/04/21 13:53:12;;;;;;;10.52;6.93;;;22.30;70.10;;;;;;5012844;28;20946;-82
2021/04/21 13:55:39;;;;;;;9.50;6.55;;;22.10;72.20;;;;;;5007815;28;20201;-81
2021/04/21 13:58:06;;;;;;;9.77;6.10;;;21.60;72.30;;;;;;5021098;28;20699;-81
2021/04/21 14:00:33;;;;;;;7.00;5.53;;;21.50;68.60;;;;;;5025943;28;20657;-81
2021/04/21 14:02:59;;;;;;;6.18;4.93;;;21.90;69.70;;;;;;5027672;28;20197;-79
2021/04/21 14:05:28;;;;;;;6.65;5.35;;;23.00;68.10;;;;;;5024316;28;20231;-79
2021/04/21 14:07:55;;;;;;;7.13;4.75;;;22.40;67.50;;;;;;5028122;28;20275;-84
2021/04/21 14:10:22;;;;;;;6.35;5.20;;;22.40;69.80;;;;;;5018439;28;20284;-82
2021/04/21 14:12:50;;;;;;;26.90;7.38;;;22.60;67.90;;;;;;5018046;28;20232;-84
2021/04/21 14:15:18;;;;;;;9.70;6.20;;;22.90;68.60;;;;;;5016851;28;20208;-81
2021/04/21 14:17:45;;;;;;;8.60;6.00;;;23.10;68.70;;;;;;5031006;28;20225;-81
2021/04/21 14:20:14;;;;;;;11.90;7.60;;;23.50;69.20;;;;;;5025974;28;20205;-84